イヌヴィック の空港の天気 - METARとTAF

イヌヴィック空港 ( CYEV / YEV ) - カナダ ノースウエスト準州イヌヴィック
飛行場実況気象(Metar)
観測時間07/04 21:00 MDT (07/05 03:00 UTC)
風向・風速不定 1m/s
視程10km以上
天気現象
少しの雲 雲底高度 1830m
少しの雲 雲底高度 5790m
全天の8割程度の雲 雲底高度 7920m
気温30℃
湿度40%
気圧1009.6hPa
METARCYEV 050300Z VRB02KT 15SM FEW060 FEW190 BKN260 30/15 A2980 RMK CU1AC2CS5 CU TR FU ALFT SLP096 DENSITY ALT 2200FT
過去の天気等 Google飛行場航空写真 Wunderground天気予報

過去48時間のMETAR

飛行場予報(TAF)
発表時間: 7/04 18:40 MDT (7/05 00:40 UTC)
予報対象時間: 4日19時 MDT ~ 5日7時 MDT
風向・風速南 3m/s
視程10km以上
少しの雲 雲底高度 2130m
4日23時 MDT から
風向・風速南南東 3m/s
視程10km以上
全天の4割程度の雲 雲底高度 2440m
4日23時 MDT ~ 5日4時 MDT に一時的に
視程10km以上
天気現象弱いしゅう雨
全天の8割程度の雲 雲底高度 2440m
4日23時 MDT から 確率 30% で
視程6440m
天気現象雷雨 もや
全天の4割程度の雲 雲底高度 1520m
全天の8割程度の積乱雲 雲底高度 2440m
TAF CYEV 050040Z 0501/0513 18006KT P6SM FEW070
FM050500 15006KT P6SM SCT080
TEMPO 0505/0510 P6SM -SHRA BKN080
PROB30 0505/0509 4SM TSRA BR SCT050 BKN080CB RMK NXT FCST BY 050700Z